sensor_id;sensor_type;location;lat;lon;timestamp;pressure;altitude;pressure_sealevel;temperature;humidity
73941;BME280;62294;48.554;10.202;2023-05-23T00:01:52;90631.22;;;15.04;100.00
73941;BME280;62294;48.554;10.202;2023-05-23T00:04:20;90639.25;;;15.01;100.00
73941;BME280;62294;48.554;10.202;2023-05-23T00:06:47;90615.25;;;15.15;100.00
73941;BME280;62294;48.554;10.202;2023-05-23T00:09:16;90614.06;;;15.16;100.00
73941;BME280;62294;48.554;10.202;2023-05-23T00:11:43;90633.91;;;15.11;100.00
73941;BME280;62294;48.554;10.202;2023-05-23T00:14:12;90633.19;;;15.14;100.00
73941;BME280;62294;48.554;10.202;2023-05-23T00:16:42;90648.44;;;15.10;100.00
73941;BME280;62294;48.554;10.202;2023-05-23T00:19:11;90657.59;;;15.06;100.00
73941;BME280;62294;48.554;10.202;2023-05-23T00:21:41;90661.78;;;15.07;100.00
73941;BME280;62294;48.554;10.202;2023-05-23T00:24:13;90652.25;;;15.09;100.00
73941;BME280;62294;48.554;10.202;2023-05-23T00:26:45;90661.38;;;14.94;100.00
73941;BME280;62294;48.554;10.202;2023-05-23T00:29:11;90664.78;;;14.87;100.00
73941;BME280;62294;48.554;10.202;2023-05-23T00:31:45;90654.47;;;14.93;100.00
73941;BME280;62294;48.554;10.202;2023-05-23T00:34:16;90659.09;;;15.00;100.00
73941;BME280;62294;48.554;10.202;2023-05-23T00:36:43;90657.19;;;15.00;100.00
73941;BME280;62294;48.554;10.202;2023-05-23T00:39:13;90652.25;;;15.06;100.00
73941;BME280;62294;48.554;10.202;2023-05-23T00:41:49;90644.22;;;15.09;100.00
73941;BME280;62294;48.554;10.202;2023-05-23T00:44:18;90649.97;;;15.08;100.00
73941;BME280;62294;48.554;10.202;2023-05-23T00:46:54;90662.53;;;15.00;100.00
73941;BME280;62294;48.554;10.202;2023-05-23T00:49:22;90684.22;;;14.88;100.00
73941;BME280;62294;48.554;10.202;2023-05-23T00:51:50;90699.78;;;14.72;100.00
73941;BME280;62294;48.554;10.202;2023-05-23T00:54:20;90716.16;;;14.63;100.00
73941;BME280;62294;48.554;10.202;2023-05-23T00:56:49;90716.88;;;14.53;100.00
73941;BME280;62294;48.554;10.202;2023-05-23T00:59:16;90728.25;;;14.47;100.00
73941;BME280;62294;48.554;10.202;2023-05-23T01:01:43;90738.06;;;14.32;100.00
73941;BME280;62294;48.554;10.202;2023-05-23T01:04:13;90730.41;;;14.31;100.00
73941;BME280;62294;48.554;10.202;2023-05-23T01:06:41;90718.22;;;14.30;100.00
73941;BME280;62294;48.554;10.202;2023-05-23T01:09:13;90680.44;;;14.31;100.00
73941;BME280;62294;48.554;10.202;2023-05-23T01:14:46;90666.28;;;14.23;100.00
73941;BME280;62294;48.554;10.202;2023-05-23T01:17:19;90649.50;;;14.23;100.00
73941;BME280;62294;48.554;10.202;2023-05-23T01:19:57;90624.69;;;14.22;100.00
73941;BME280;62294;48.554;10.202;2023-05-23T01:22:37;90599.13;;;14.21;100.00
73941;BME280;62294;48.554;10.202;2023-05-23T01:25:27;90570.91;;;14.20;100.00
73941;BME280;62294;48.554;10.202;2023-05-23T01:28:00;90564.34;;;14.07;100.00
73941;BME280;62294;48.554;10.202;2023-05-23T01:30:31;90542.28;;;14.17;100.00
73941;BME280;62294;48.554;10.202;2023-05-23T01:33:02;90525.88;;;14.12;100.00
73941;BME280;62294;48.554;10.202;2023-05-23T01:35:30;90529.22;;;13.98;100.00
73941;BME280;62294;48.554;10.202;2023-05-23T01:37:56;90524.25;;;13.93;100.00
73941;BME280;62294;48.554;10.202;2023-05-23T01:40:24;90525.72;;;13.87;100.00
73941;BME280;62294;48.554;10.202;2023-05-23T01:42:52;90509.69;;;13.84;100.00
73941;BME280;62294;48.554;10.202;2023-05-23T01:45:20;90505.91;;;13.88;100.00
73941;BME280;62294;48.554;10.202;2023-05-23T01:47:48;90466.69;;;13.96;100.00
73941;BME280;62294;48.554;10.202;2023-05-23T01:50:16;90444.22;;;14.00;100.00
73941;BME280;62294;48.554;10.202;2023-05-23T01:52:45;90423.22;;;13.92;100.00
73941;BME280;62294;48.554;10.202;2023-05-23T01:55:13;90431.94;;;13.82;100.00
73941;BME280;62294;48.554;10.202;2023-05-23T01:57:42;90429.63;;;13.73;100.00
73941;BME280;62294;48.554;10.202;2023-05-23T02:00:12;90417.03;;;13.70;100.00
73941;BME280;62294;48.554;10.202;2023-05-23T02:02:40;90389.22;;;13.71;100.00
73941;BME280;62294;48.554;10.202;2023-05-23T02:05:08;90367.88;;;13.71;100.00
73941;BME280;62294;48.554;10.202;2023-05-23T02:07:35;90347.69;;;13.70;100.00
73941;BME280;62294;48.554;10.202;2023-05-23T02:10:03;90350.34;;;13.70;100.00
73941;BME280;62294;48.554;10.202;2023-05-23T02:12:30;90331.31;;;13.75;100.00
73941;BME280;62294;48.554;10.202;2023-05-23T02:14:56;90292.47;;;13.81;100.00
73941;BME280;62294;48.554;10.202;2023-05-23T02:17:23;90239.13;;;13.92;100.00
73941;BME280;62294;48.554;10.202;2023-05-23T02:19:50;90205.22;;;13.99;100.00
73941;BME280;62294;48.554;10.202;2023-05-23T02:22:16;90180.03;;;13.97;100.00
73941;BME280;62294;48.554;10.202;2023-05-23T02:24:42;90165.94;;;13.96;100.00
73941;BME280;62294;48.554;10.202;2023-05-23T02:27:09;90171.66;;;13.81;100.00
73941;BME280;62294;48.554;10.202;2023-05-23T02:29:36;90163.66;;;13.67;100.00
73941;BME280;62294;48.554;10.202;2023-05-23T02:32:02;90167.44;;;13.55;100.00
73941;BME280;62294;48.554;10.202;2023-05-23T02:34:29;90141.94;;;13.61;100.00
73941;BME280;62294;48.554;10.202;2023-05-23T02:36:55;90111.84;;;13.71;100.00
73941;BME280;62294;48.554;10.202;2023-05-23T02:39:21;90100.41;;;13.60;100.00
73941;BME280;62294;48.554;10.202;2023-05-23T02:41:48;90109.16;;;13.50;100.00
73941;BME280;62294;48.554;10.202;2023-05-23T02:44:15;90099.63;;;13.42;100.00
73941;BME280;62294;48.554;10.202;2023-05-23T02:46:41;90065.72;;;13.53;100.00
73941;BME280;62294;48.554;10.202;2023-05-23T02:49:08;90033.34;;;13.58;100.00
73941;BME280;62294;48.554;10.202;2023-05-23T02:51:35;89948.00;;;13.79;100.00
73941;BME280;62294;48.554;10.202;2023-05-23T02:54:01;89914.44;;;13.85;100.00
73941;BME280;62294;48.554;10.202;2023-05-23T02:56:28;89838.97;;;13.88;100.00
73941;BME280;62294;48.554;10.202;2023-05-23T02:58:55;89777.97;;;13.90;100.00
73941;BME280;62294;48.554;10.202;2023-05-23T03:01:21;89780.31;;;13.81;100.00
73941;BME280;62294;48.554;10.202;2023-05-23T03:03:48;89736.06;;;13.87;100.00
73941;BME280;62294;48.554;10.202;2023-05-23T03:06:15;89712.81;;;13.91;100.00
73941;BME280;62294;48.554;10.202;2023-05-23T03:08:42;89689.59;;;13.88;100.00
73941;BME280;62294;48.554;10.202;2023-05-23T03:11:08;89664.84;;;13.84;100.00
73941;BME280;62294;48.554;10.202;2023-05-23T03:13:35;89643.53;;;13.84;100.00
73941;BME280;62294;48.554;10.202;2023-05-23T03:16:02;89637.88;;;13.75;100.00
73941;BME280;62294;48.554;10.202;2023-05-23T03:18:28;89618.78;;;13.80;100.00
73941;BME280;62294;48.554;10.202;2023-05-23T03:20:55;89595.16;;;13.82;100.00
73941;BME280;62294;48.554;10.202;2023-05-23T03:23:22;89574.19;;;13.81;100.00
73941;BME280;62294;48.554;10.202;2023-05-23T03:25:48;89544.44;;;13.86;100.00
73941;BME280;62294;48.554;10.202;2023-05-23T03:28:15;89532.22;;;13.88;100.00
73941;BME280;62294;48.554;10.202;2023-05-23T03:30:41;89515.06;;;13.89;100.00
73941;BME280;62294;48.554;10.202;2023-05-23T03:33:08;89518.94;;;13.81;100.00
73941;BME280;62294;48.554;10.202;2023-05-23T03:35:34;89581.88;;;13.75;100.00
73941;BME280;62294;48.554;10.202;2023-05-23T03:38:01;89655.38;;;13.76;100.00
73941;BME280;62294;48.554;10.202;2023-05-23T03:40:27;89657.00;;;13.63;100.00
73941;BME280;62294;48.554;10.202;2023-05-23T03:43:01;89641.78;;;13.60;100.00
73941;BME280;62294;48.554;10.202;2023-05-23T03:45:32;89669.28;;;13.50;100.00
73941;BME280;62294;48.554;10.202;2023-05-23T03:48:00;89675.78;;;13.42;100.00
73941;BME280;62294;48.554;10.202;2023-05-23T03:50:27;89714.28;;;13.41;100.00
73941;BME280;62294;48.554;10.202;2023-05-23T03:52:53;89740.97;;;13.27;100.00
73941;BME280;62294;48.554;10.202;2023-05-23T03:55:20;89726.56;;;13.21;100.00
73941;BME280;62294;48.554;10.202;2023-05-23T03:57:48;89713.94;;;13.32;100.00
73941;BME280;62294;48.554;10.202;2023-05-23T04:00:14;89654.38;;;13.56;100.00
73941;BME280;62294;48.554;10.202;2023-05-23T04:02:41;89654.38;;;13.56;100.00
73941;BME280;62294;48.554;10.202;2023-05-23T04:05:09;89624.59;;;13.65;100.00
73941;BME280;62294;48.554;10.202;2023-05-23T04:07:35;89588.28;;;13.81;100.00
73941;BME280;62294;48.554;10.202;2023-05-23T04:10:02;89556.16;;;13.92;100.00
73941;BME280;62294;48.554;10.202;2023-05-23T04:12:29;89522.47;;;14.08;100.00
73941;BME280;62294;48.554;10.202;2023-05-23T04:14:56;89488.78;;;14.21;100.00
73941;BME280;62294;48.554;10.202;2023-05-23T04:17:23;89444.28;;;14.45;100.00
73941;BME280;62294;48.554;10.202;2023-05-23T04:19:51;89416.63;;;14.59;100.00
73941;BME280;62294;48.554;10.202;2023-05-23T04:22:17;89395.88;;;14.70;100.00
73941;BME280;62294;48.554;10.202;2023-05-23T04:24:44;89385.91;;;14.74;100.00
73941;BME280;62294;48.554;10.202;2023-05-23T04:27:10;89369.19;;;14.93;100.00
73941;BME280;62294;48.554;10.202;2023-05-23T04:29:37;89352.69;;;14.98;100.00
73941;BME280;62294;48.554;10.202;2023-05-23T04:32:04;89352.63;;;15.02;100.00
73941;BME280;62294;48.554;10.202;2023-05-23T04:34:31;89371.06;;;14.96;100.00
73941;BME280;62294;48.554;10.202;2023-05-23T04:36:59;89368.66;;;15.02;100.00
73941;BME280;62294;48.554;10.202;2023-05-23T04:39:28;89380.19;;;14.99;100.00
73941;BME280;62294;48.554;10.202;2023-05-23T04:41:57;89357.34;;;15.17;100.00
73941;BME280;62294;48.554;10.202;2023-05-23T04:44:25;89337.63;;;15.31;100.00
73941;BME280;62294;48.554;10.202;2023-05-23T04:46:55;89302.09;;;15.53;100.00
73941;BME280;62294;48.554;10.202;2023-05-23T04:49:22;89306.53;;;15.60;100.00
73941;BME280;62294;48.554;10.202;2023-05-23T04:51:49;89317.16;;;15.63;100.00
73941;BME280;62294;48.554;10.202;2023-05-23T04:54:16;89321.91;;;15.76;100.00
73941;BME280;62294;48.554;10.202;2023-05-23T04:56:42;89329.38;;;15.84;100.00
73941;BME280;62294;48.554;10.202;2023-05-23T04:59:09;89336.28;;;16.01;100.00
73941;BME280;62294;48.554;10.202;2023-05-23T05:01:36;89346.69;;;16.15;100.00
73941;BME280;62294;48.554;10.202;2023-05-23T05:04:06;89357.84;;;16.30;100.00
73941;BME280;62294;48.554;10.202;2023-05-23T05:06:33;89423.03;;;16.23;100.00
73941;BME280;62294;48.554;10.202;2023-05-23T05:09:00;89485.97;;;16.12;100.00
73941;BME280;62294;48.554;10.202;2023-05-23T05:11:26;89546.50;;;16.06;100.00
73941;BME280;62294;48.554;10.202;2023-05-23T05:13:54;89540.56;;;16.38;100.00
73941;BME280;62294;48.554;10.202;2023-05-23T05:16:20;89539.44;;;16.58;100.00
73941;BME280;62294;48.554;10.202;2023-05-23T05:18:48;89553.50;;;16.82;100.00
73941;BME280;62294;48.554;10.202;2023-05-23T05:21:14;89585.31;;;16.99;100.00
73941;BME280;62294;48.554;10.202;2023-05-23T05:23:40;89638.63;;;17.14;100.00
73941;BME280;62294;48.554;10.202;2023-05-23T05:26:07;89703.69;;;17.18;100.00
73941;BME280;62294;48.554;10.202;2023-05-23T05:28:34;89787.09;;;17.23;100.00
73941;BME280;62294;48.554;10.202;2023-05-23T05:31:01;89891.06;;;17.16;100.00
73941;BME280;62294;48.554;10.202;2023-05-23T05:33:30;89985.66;;;17.16;100.00
73941;BME280;62294;48.554;10.202;2023-05-23T05:36:02;90105.41;;;16.99;100.00
73941;BME280;62294;48.554;10.202;2023-05-23T05:38:28;90235.88;;;16.72;100.00
73941;BME280;62294;48.554;10.202;2023-05-23T05:40:56;90296.81;;;16.61;100.00
73941;BME280;62294;48.554;10.202;2023-05-23T05:43:22;90356.94;;;16.60;100.00
73941;BME280;62294;48.554;10.202;2023-05-23T05:45:49;90413.63;;;16.48;100.00
73941;BME280;62294;48.554;10.202;2023-05-23T05:48:16;90463.41;;;16.42;100.00
73941;BME280;62294;48.554;10.202;2023-05-23T05:50:43;90493.25;;;16.44;100.00
73941;BME280;62294;48.554;10.202;2023-05-23T05:53:10;90502.78;;;16.56;100.00
73941;BME280;62294;48.554;10.202;2023-05-23T05:55:38;90537.63;;;16.52;100.00
73941;BME280;62294;48.554;10.202;2023-05-23T05:58:04;90601.56;;;16.40;100.00
73941;BME280;62294;48.554;10.202;2023-05-23T06:00:31;90628.72;;;16.45;100.00
73941;BME280;62294;48.554;10.202;2023-05-23T06:02:58;90645.59;;;16.56;100.00
73941;BME280;62294;48.554;10.202;2023-05-23T06:05:24;90677.75;;;16.56;100.00
73941;BME280;62294;48.554;10.202;2023-05-23T06:07:52;90698.41;;;16.56;100.00
73941;BME280;62294;48.554;10.202;2023-05-23T06:10:18;90702.22;;;16.72;100.00
73941;BME280;62294;48.554;10.202;2023-05-23T06:12:45;90722.09;;;16.85;100.00
73941;BME280;62294;48.554;10.202;2023-05-23T06:15:12;90765.75;;;16.86;100.00
73941;BME280;62294;48.554;10.202;2023-05-23T06:17:39;90816.31;;;16.87;100.00
73941;BME280;62294;48.554;10.202;2023-05-23T06:20:06;90846.94;;;17.00;100.00
73941;BME280;62294;48.554;10.202;2023-05-23T06:22:33;90858.41;;;17.26;100.00
73941;BME280;62294;48.554;10.202;2023-05-23T06:25:00;90955.75;;;17.09;100.00
73941;BME280;62294;48.554;10.202;2023-05-23T06:27:26;91004.06;;;17.16;100.00
73941;BME280;62294;48.554;10.202;2023-05-23T06:29:53;91033.16;;;17.21;100.00
73941;BME280;62294;48.554;10.202;2023-05-23T06:32:19;91089.88;;;17.09;100.00
73941;BME280;62294;48.554;10.202;2023-05-23T06:34:46;91114.44;;;17.25;100.00
73941;BME280;62294;48.554;10.202;2023-05-23T06:37:13;91189.06;;;17.05;100.00
73941;BME280;62294;48.554;10.202;2023-05-23T06:39:39;91227.00;;;17.07;100.00
73941;BME280;62294;48.554;10.202;2023-05-23T06:42:06;91204.16;;;17.38;100.00
73941;BME280;62294;48.554;10.202;2023-05-23T06:44:33;91238.66;;;17.39;100.00
73941;BME280;62294;48.554;10.202;2023-05-23T06:46:59;91314.34;;;17.04;100.00
73941;BME280;62294;48.554;10.202;2023-05-23T06:49:25;91313.75;;;17.29;100.00
73941;BME280;62294;48.554;10.202;2023-05-23T06:51:52;91359.72;;;17.24;100.00
73941;BME280;62294;48.554;10.202;2023-05-23T06:54:19;91392.28;;;17.22;100.00
73941;BME280;62294;48.554;10.202;2023-05-23T06:56:46;91389.72;;;17.40;100.00
73941;BME280;62294;48.554;10.202;2023-05-23T06:59:12;91434.59;;;17.43;100.00
73941;BME280;62294;48.554;10.202;2023-05-23T07:01:39;91452.78;;;17.60;100.00
73941;BME280;62294;48.554;10.202;2023-05-23T07:04:05;91514.72;;;17.41;100.00
73941;BME280;62294;48.554;10.202;2023-05-23T07:06:33;91550.81;;;17.47;100.00
73941;BME280;62294;48.554;10.202;2023-05-23T07:09:01;91618.13;;;17.31;100.00
73941;BME280;62294;48.554;10.202;2023-05-23T07:11:29;91623.53;;;17.35;100.00
73941;BME280;62294;48.554;10.202;2023-05-23T07:13:56;91630.13;;;17.41;100.00
73941;BME280;62294;48.554;10.202;2023-05-23T07:16:22;91649.56;;;17.34;100.00
73941;BME280;62294;48.554;10.202;2023-05-23T07:18:49;91656.59;;;17.42;100.00
73941;BME280;62294;48.554;10.202;2023-05-23T07:21:15;91703.94;;;17.28;100.00
73941;BME280;62294;48.554;10.202;2023-05-23T07:23:42;91686.34;;;17.30;100.00
73941;BME280;62294;48.554;10.202;2023-05-23T07:26:08;91685.91;;;17.25;100.00
73941;BME280;62294;48.554;10.202;2023-05-23T07:28:35;91656.66;;;17.49;100.00
73941;BME280;62294;48.554;10.202;2023-05-23T07:31:02;91672.00;;;17.49;100.00
73941;BME280;62294;48.554;10.202;2023-05-23T07:33:29;91667.16;;;17.61;100.00
73941;BME280;62294;48.554;10.202;2023-05-23T07:35:56;91664.22;;;17.73;100.00
73941;BME280;62294;48.554;10.202;2023-05-23T07:38:22;91729.56;;;17.51;100.00
73941;BME280;62294;48.554;10.202;2023-05-23T07:40:49;91767.56;;;17.27;100.00
73941;BME280;62294;48.554;10.202;2023-05-23T07:43:32;91709.72;;;17.59;100.00
73941;BME280;62294;48.554;10.202;2023-05-23T07:45:59;91682.47;;;17.94;100.00
73941;BME280;62294;48.554;10.202;2023-05-23T07:48:26;91704.06;;;18.05;100.00
73941;BME280;62294;48.554;10.202;2023-05-23T07:50:52;91697.81;;;18.37;100.00
73941;BME280;62294;48.554;10.202;2023-05-23T07:53:20;91736.84;;;18.65;100.00
73941;BME280;62294;48.554;10.202;2023-05-23T07:55:48;91825.88;;;18.53;100.00
73941;BME280;62294;48.554;10.202;2023-05-23T07:58:14;91918.53;;;18.29;100.00
73941;BME280;62294;48.554;10.202;2023-05-23T08:00:42;91971.38;;;18.18;100.00
73941;BME280;62294;48.554;10.202;2023-05-23T08:03:09;91995.06;;;18.12;100.00
73941;BME280;62294;48.554;10.202;2023-05-23T08:05:37;92022.47;;;17.95;100.00
73941;BME280;62294;48.554;10.202;2023-05-23T08:08:04;92071.94;;;17.68;100.00
73941;BME280;62294;48.554;10.202;2023-05-23T08:10:30;92050.31;;;17.61;100.00
73941;BME280;62294;48.554;10.202;2023-05-23T08:12:56;92015.00;;;17.59;100.00
73941;BME280;62294;48.554;10.202;2023-05-23T08:15:26;92042.22;;;17.16;100.00
73941;BME280;62294;48.554;10.202;2023-05-23T08:17:53;92007.69;;;17.14;100.00
73941;BME280;62294;48.554;10.202;2023-05-23T08:20:22;91982.34;;;17.12;100.00
73941;BME280;62294;48.554;10.202;2023-05-23T08:23:00;91965.72;;;17.02;100.00
73941;BME280;62294;48.554;10.202;2023-05-23T08:25:27;91878.97;;;17.44;100.00
73941;BME280;62294;48.554;10.202;2023-05-23T08:27:58;91886.88;;;17.33;100.00
73941;BME280;62294;48.554;10.202;2023-05-23T08:30:26;91914.59;;;17.18;100.00
73941;BME280;62294;48.554;10.202;2023-05-23T08:32:56;91932.78;;;17.02;100.00
73941;BME280;62294;48.554;10.202;2023-05-23T08:35:23;91899.72;;;17.21;100.00
73941;BME280;62294;48.554;10.202;2023-05-23T08:37:49;91905.69;;;17.11;100.00
73941;BME280;62294;48.554;10.202;2023-05-23T08:40:21;91879.50;;;17.27;100.00
73941;BME280;62294;48.554;10.202;2023-05-23T08:42:49;91798.78;;;17.98;100.00
73941;BME280;62294;48.554;10.202;2023-05-23T08:45:17;91800.72;;;18.38;100.00
73941;BME280;62294;48.554;10.202;2023-05-23T08:47:45;91895.50;;;18.31;100.00
73941;BME280;62294;48.554;10.202;2023-05-23T08:50:15;91988.09;;;18.08;100.00
73941;BME280;62294;48.554;10.202;2023-05-23T08:52:55;92040.88;;;18.19;100.00
73941;BME280;62294;48.554;10.202;2023-05-23T08:55:23;92089.66;;;18.21;100.00
73941;BME280;62294;48.554;10.202;2023-05-23T08:57:53;92148.13;;;18.05;100.00
73941;BME280;62294;48.554;10.202;2023-05-23T09:00:20;92148.78;;;18.21;100.00
73941;BME280;62294;48.554;10.202;2023-05-23T09:02:47;92180.06;;;18.10;100.00
73941;BME280;62294;48.554;10.202;2023-05-23T09:05:14;92189.50;;;18.23;100.00
73941;BME280;62294;48.554;10.202;2023-05-23T09:07:42;92199.50;;;18.23;100.00
73941;BME280;62294;48.554;10.202;2023-05-23T09:10:09;92086.00;;;19.22;100.00
73941;BME280;62294;48.554;10.202;2023-05-23T09:12:36;92006.22;;;20.38;100.00
73941;BME280;62294;48.554;10.202;2023-05-23T09:15:04;92085.78;;;21.48;100.00
73941;BME280;62294;48.554;10.202;2023-05-23T09:17:31;92301.69;;;23.10;100.00
73941;BME280;62294;48.554;10.202;2023-05-23T09:20:02;92888.59;;;24.62;100.00
73941;BME280;62294;48.554;10.202;2023-05-23T09:22:31;93631.56;;;25.45;100.00
73941;BME280;62294;48.554;10.202;2023-05-23T09:24:57;94287.88;;;25.33;100.00
73941;BME280;62294;48.554;10.202;2023-05-23T09:27:24;94460.88;;;24.67;100.00
73941;BME280;62294;48.554;10.202;2023-05-23T09:29:50;94531.19;;;25.08;100.00
73941;BME280;62294;48.554;10.202;2023-05-23T09:32:18;94681.91;;;25.90;100.00
73941;BME280;62294;48.554;10.202;2023-05-23T09:34:59;95285.13;;;26.57;100.00
73941;BME280;62294;48.554;10.202;2023-05-23T09:37:37;95523.31;;;26.23;100.00
73941;BME280;62294;48.554;10.202;2023-05-23T09:40:09;95562.63;;;26.14;100.00
73941;BME280;62294;48.554;10.202;2023-05-23T09:42:44;95556.66;;;25.82;100.00
73941;BME280;62294;48.554;10.202;2023-05-23T09:45:12;95522.06;;;23.99;100.00
73941;BME280;62294;48.554;10.202;2023-05-23T09:47:38;95399.06;;;22.78;100.00
73941;BME280;62294;48.554;10.202;2023-05-23T09:50:07;95259.84;;;21.73;100.00
73941;BME280;62294;48.554;10.202;2023-05-23T09:52:36;95095.41;;;20.86;100.00
73941;BME280;62294;48.554;10.202;2023-05-23T09:55:05;94911.50;;;19.63;100.00
73941;BME280;62294;48.554;10.202;2023-05-23T09:57:34;94705.69;;;18.88;100.00
73941;BME280;62294;48.554;10.202;2023-05-23T10:00:04;94545.34;;;18.73;100.00
73941;BME280;62294;48.554;10.202;2023-05-23T10:02:54;93679.03;;;18.89;100.00
73941;BME280;62294;48.554;10.202;2023-05-23T10:05:34;93469.88;;;19.34;100.00
73941;BME280;62294;48.554;10.202;2023-05-23T10:08:08;93319.47;;;20.28;100.00
73941;BME280;62294;48.554;10.202;2023-05-23T10:13:27;93498.75;;;21.88;100.00
73941;BME280;62294;48.554;10.202;2023-05-23T10:16:01;93738.00;;;23.69;100.00
73941;BME280;62294;48.554;10.202;2023-05-23T10:18:38;94213.56;;;23.89;100.00
73941;BME280;62294;48.554;10.202;2023-05-23T10:21:08;94508.53;;;22.87;100.00
73941;BME280;62294;48.554;10.202;2023-05-23T10:23:37;94387.25;;;21.85;100.00
73941;BME280;62294;48.554;10.202;2023-05-23T10:26:04;94333.81;;;21.33;100.00
73941;BME280;62294;48.554;10.202;2023-05-23T10:28:31;94267.09;;;20.11;100.00
73941;BME280;62294;48.554;10.202;2023-05-23T10:30:58;94110.47;;;19.78;100.00
73941;BME280;62294;48.554;10.202;2023-05-23T10:33:27;94016.66;;;19.17;100.00
73941;BME280;62294;48.554;10.202;2023-05-23T10:36:08;93931.91;;;19.23;100.00
73941;BME280;62294;48.554;10.202;2023-05-23T10:39:01;93869.84;;;19.90;100.00
73941;BME280;62294;48.554;10.202;2023-05-23T10:41:33;93869.72;;;20.28;100.00
73941;BME280;62294;48.554;10.202;2023-05-23T10:44:11;93979.88;;;20.26;100.00
73941;BME280;62294;48.554;10.202;2023-05-23T10:46:54;94036.53;;;20.26;100.00
73941;BME280;62294;48.554;10.202;2023-05-23T10:49:40;94049.22;;;20.25;100.00
73941;BME280;62294;48.554;10.202;2023-05-23T10:52:08;94105.28;;;20.40;100.00
73941;BME280;62294;48.554;10.202;2023-05-23T10:54:41;94108.41;;;20.22;100.00
73941;BME280;62294;48.554;10.202;2023-05-23T10:57:09;94020.75;;;21.67;100.00
73941;BME280;62294;48.554;10.202;2023-05-23T10:59:38;94205.34;;;22.45;100.00
73941;BME280;62294;48.554;10.202;2023-05-23T11:02:17;94344.56;;;23.13;100.00
73941;BME280;62294;48.554;10.202;2023-05-23T11:04:44;94486.84;;;22.75;100.00
73941;BME280;62294;48.554;10.202;2023-05-23T11:07:31;94592.97;;;22.89;100.00
73941;BME280;62294;48.554;10.202;2023-05-23T11:10:03;94586.56;;;23.47;100.00
73941;BME280;62294;48.554;10.202;2023-05-23T11:12:43;94658.72;;;22.98;100.00
73941;BME280;62294;48.554;10.202;2023-05-23T11:17:53;94685.69;;;24.22;100.00
73941;BME280;62294;48.554;10.202;2023-05-23T11:20:23;94839.69;;;23.51;100.00
73941;BME280;62294;48.554;10.202;2023-05-23T11:23:01;94763.84;;;24.73;100.00
73941;BME280;62294;48.554;10.202;2023-05-23T11:28:06;94865.31;;;24.03;100.00
73941;BME280;62294;48.554;10.202;2023-05-23T11:30:34;95265.84;;;24.47;100.00
73941;BME280;62294;48.554;10.202;2023-05-23T11:33:12;95355.66;;;24.50;100.00
73941;BME280;62294;48.554;10.202;2023-05-23T11:35:45;95386.66;;;23.72;100.00
73941;BME280;62294;48.554;10.202;2023-05-23T11:38:13;95380.28;;;22.59;100.00
73941;BME280;62294;48.554;10.202;2023-05-23T11:40:42;95257.44;;;22.55;100.00
73941;BME280;62294;48.554;10.202;2023-05-23T11:43:12;95230.88;;;23.56;100.00
73941;BME280;62294;48.554;10.202;2023-05-23T11:45:39;95391.66;;;23.00;100.00
73941;BME280;62294;48.554;10.202;2023-05-23T11:48:14;95407.16;;;23.39;100.00
73941;BME280;62294;48.554;10.202;2023-05-23T11:50:49;95407.00;;;23.05;100.00
73941;BME280;62294;48.554;10.202;2023-05-23T11:53:19;95427.22;;;22.99;100.00
73941;BME280;62294;48.554;10.202;2023-05-23T11:55:50;95466.13;;;23.34;100.00
73941;BME280;62294;48.554;10.202;2023-05-23T11:58:25;95419.06;;;23.86;100.00
73941;BME280;62294;48.554;10.202;2023-05-23T12:00:51;95471.34;;;24.34;100.00
73941;BME280;62294;48.554;10.202;2023-05-23T12:03:23;95540.38;;;24.59;100.00
73941;BME280;62294;48.554;10.202;2023-05-23T12:05:50;95594.59;;;24.81;100.00
73941;BME280;62294;48.554;10.202;2023-05-23T12:08:17;95538.19;;;25.88;100.00
73941;BME280;62294;48.554;10.202;2023-05-23T12:10:51;95663.47;;;25.79;100.00
73941;BME280;62294;48.554;10.202;2023-05-23T12:13:19;95714.66;;;24.05;100.00
73941;BME280;62294;48.554;10.202;2023-05-23T12:15:53;95563.84;;;23.20;100.00
73941;BME280;62294;48.554;10.202;2023-05-23T12:18:19;95432.31;;;23.87;100.00
73941;BME280;62294;48.554;10.202;2023-05-23T12:20:49;95490.97;;;24.83;100.00
73941;BME280;62294;48.554;10.202;2023-05-23T12:23:20;95565.81;;;23.59;100.00
73941;BME280;62294;48.554;10.202;2023-05-23T12:25:52;95457.69;;;22.74;100.00
73941;BME280;62294;48.554;10.202;2023-05-23T12:28:20;95387.84;;;21.82;100.00
73941;BME280;62294;48.554;10.202;2023-05-23T12:30:46;95264.75;;;22.15;100.00
73941;BME280;62294;48.554;10.202;2023-05-23T12:33:17;95287.81;;;21.90;100.00
73941;BME280;62294;48.554;10.202;2023-05-23T12:35:43;95304.00;;;22.04;100.00
73941;BME280;62294;48.554;10.202;2023-05-23T12:38:14;95306.50;;;20.80;100.00
73941;BME280;62294;48.554;10.202;2023-05-23T12:40:42;95213.00;;;20.29;100.00
73941;BME280;62294;48.554;10.202;2023-05-23T12:43:08;95142.00;;;21.05;100.00
73941;BME280;62294;48.554;10.202;2023-05-23T12:45:36;95154.00;;;21.88;100.00
73941;BME280;62294;48.554;10.202;2023-05-23T12:48:04;95245.41;;;22.61;100.00
73941;BME280;62294;48.554;10.202;2023-05-23T12:50:31;95310.41;;;22.08;100.00
73941;BME280;62294;48.554;10.202;2023-05-23T12:52:58;95318.63;;;23.43;100.00
73941;BME280;62294;48.554;10.202;2023-05-23T12:55:25;95442.25;;;24.52;100.00
73941;BME280;62294;48.554;10.202;2023-05-23T12:57:51;95588.75;;;23.83;100.00
73941;BME280;62294;48.554;10.202;2023-05-23T13:00:18;95544.41;;;23.57;100.00